createdAt,value
2022-10-05T14:31:27.791Z,-19
2022-10-05T14:36:27.686Z,-19
2022-10-05T14:46:29.006Z,-21
2022-10-05T14:56:27.724Z,-20
2022-10-05T15:01:27.825Z,-20
2022-10-05T15:11:27.717Z,-20
2022-10-05T15:21:27.740Z,-20
2022-10-05T15:31:27.710Z,-20
2022-10-05T15:46:27.791Z,-20
2022-10-05T15:51:27.709Z,-20
2022-10-05T15:56:27.743Z,-19
2022-10-05T16:06:27.785Z,-20
2022-10-05T16:11:27.738Z,-20
2022-10-05T16:21:27.720Z,-20
2022-10-05T16:31:27.882Z,-20
2022-10-05T16:36:27.724Z,-19
2022-10-05T16:41:27.723Z,-20
2022-10-05T16:46:28.205Z,-20
2022-10-05T17:06:27.764Z,-19
2022-10-05T17:11:27.750Z,-21
2022-10-05T17:21:27.716Z,-22
2022-10-05T17:26:27.752Z,-22
2022-10-05T17:31:27.928Z,-22
2022-10-05T17:41:27.720Z,-22
2022-10-05T17:46:27.902Z,-22
2022-10-05T17:51:27.748Z,-22
2022-10-05T18:01:27.754Z,-22
2022-10-05T18:06:27.896Z,-22
2022-10-05T18:26:27.762Z,-22
2022-10-05T18:36:27.752Z,-24
2022-10-05T18:46:27.860Z,-24
2022-10-05T18:51:27.770Z,-24
2022-10-05T19:01:27.998Z,-26
2022-10-05T19:11:27.815Z,-25
2022-10-05T19:21:27.754Z,-22
2022-10-05T19:26:27.756Z,-24
2022-10-05T19:41:27.812Z,-23
2022-10-05T19:51:27.784Z,-22
2022-10-05T20:01:27.851Z,-22
2022-10-05T20:06:27.775Z,-22
2022-10-05T20:16:27.960Z,-22
2022-10-05T20:26:27.823Z,-22
2022-10-05T20:31:27.867Z,-22
2022-10-05T20:41:27.777Z,-22
2022-10-05T21:01:27.858Z,-22
2022-10-05T21:06:27.787Z,-22
2022-10-05T21:16:27.937Z,-22
2022-10-05T21:21:27.804Z,-24
2022-10-05T21:26:27.783Z,-22
2022-10-05T21:36:27.812Z,-23
2022-10-05T21:41:27.879Z,-22
2022-10-05T21:51:27.814Z,-23
2022-10-05T22:01:27.904Z,-22
2022-10-05T22:16:27.856Z,-22
2022-10-05T22:21:27.837Z,-24
2022-10-05T22:31:27.887Z,-22
2022-10-05T22:36:27.840Z,-24
2022-10-05T22:46:27.912Z,-22
2022-10-05T22:51:27.839Z,-24
2022-10-05T23:01:27.903Z,-22
2022-10-05T23:11:27.881Z,-22
2022-10-05T23:16:27.971Z,-26
2022-10-05T23:36:27.847Z,-25
2022-10-05T23:41:27.832Z,-22
2022-10-05T23:46:27.876Z,-22
2022-10-05T23:56:27.887Z,-24
